Time;durP1;ratioP1;P1;durP2;ratioP2;P2;SDS_P1;SDS_P2;PMS_P1;PMS_P2;Temp;Humidity;BMP_temperature;BMP_pressure;BME280_temperature;BME280_humidity;BME280_pressure;Samples;Min_cycle;Max_cycle;Signal;HPM_P1;HPM_P2
2023/01/28 00:02:01;;;;;;;13.25;9.48;;;;;;;;;;5069607;28;20085;-64
2023/01/28 00:04:27;;;;;;;12.52;9.20;;;;;;;;;;5077881;28;20123;-64
2023/01/28 00:06:53;;;;;;;14.40;10.00;;;;;;;;;;5079675;28;20040;-64
2023/01/28 00:09:19;;;;;;;14.85;11.07;;;;;;;;;;5091525;28;20040;-65
2023/01/28 00:11:45;;;;;;;13.60;10.32;;;;;;;;;;5090227;28;20036;-65
2023/01/28 00:14:11;;;;;;;15.20;11.05;;;;;;;;;;5070669;28;20193;-65
2023/01/28 00:16:38;;;;;;;13.73;10.73;;;;;;;;;;5089329;28;20111;-65
2023/01/28 00:19:04;;;;;;;13.50;10.45;;;;;;;;;;5071533;28;20074;-64
2023/01/28 00:21:30;;;;;;;13.85;11.02;;;;;;;;;;5084903;28;20435;-65
2023/01/28 00:23:56;;;;;;;16.55;10.63;;;;;;;;;;5087437;28;20036;-64
2023/01/28 00:26:24;;;;;;;12.27;10.52;;;;;;;;;;5085743;28;20032;-64
2023/01/28 00:28:50;;;;;;;13.43;10.30;;;;;;;;;;5082150;28;20089;-65
2023/01/28 00:31:23;;;;;;;11.75;9.73;;;;;;;;;;5084774;28;20538;-65
2023/01/28 00:33:50;;;;;;;15.27;11.23;;;;;;;;;;5082323;28;20052;-65
2023/01/28 00:36:20;;;;;;;13.82;11.40;;;;;;;;;;5084472;28;20032;-64
2023/01/28 00:38:50;;;;;;;14.52;10.98;;;;;;;;;;5086583;28;20043;-64
2023/01/28 00:41:17;;;;;;;13.70;10.55;;;;;;;;;;5075897;28;20044;-65
2023/01/28 00:43:44;;;;;;;14.88;11.80;;;;;;;;;;5070177;28;20094;-64
2023/01/28 00:46:10;;;;;;;13.05;11.02;;;;;;;;;;5072277;28;20427;-65
2023/01/28 00:48:37;;;;;;;13.35;11.00;;;;;;;;;;5081636;28;20029;-64
2023/01/28 00:51:03;;;;;;;10.82;8.68;;;;;;;;;;5083536;28;20043;-64
2023/01/28 00:53:29;;;;;;;11.95;9.13;;;;;;;;;;5088447;28;20039;-64
2023/01/28 00:55:55;;;;;;;12.32;9.70;;;;;;;;;;5078629;28;20448;-64
2023/01/28 00:58:23;;;;;;;11.18;9.52;;;;;;;;;;5071177;28;20040;-64
2023/01/28 01:00:49;;;;;;;9.70;8.07;;;;;;;;;;5070871;28;20041;-65
2023/01/28 01:03:16;;;;;;;11.57;9.23;;;;;;;;;;5081099;28;20481;-64
2023/01/28 01:05:42;;;;;;;14.88;9.13;;;;;;;;;;5081489;28;20032;-65
2023/01/28 01:08:08;;;;;;;11.43;8.77;;;;;;;;;;5082993;28;20035;-64
2023/01/28 01:10:34;;;;;;;12.48;9.77;;;;;;;;;;5070549;28;20047;-65
2023/01/28 01:13:00;;;;;;;13.80;9.65;;;;;;;;;;5089950;28;20566;-64
2023/01/28 01:15:26;;;;;;;12.82;9.50;;;;;;;;;;5088917;28;20036;-65
2023/01/28 01:17:52;;;;;;;11.90;9.63;;;;;;;;;;5080657;28;20094;-64
2023/01/28 01:20:22;;;;;;;11.95;9.65;;;;;;;;;;5076777;28;20494;-65
2023/01/28 01:22:48;;;;;;;12.45;9.65;;;;;;;;;;5084716;28;20040;-64
2023/01/28 01:25:15;;;;;;;12.82;9.85;;;;;;;;;;5089301;28;20090;-65
2023/01/28 01:27:41;;;;;;;13.13;10.40;;;;;;;;;;5085723;28;20063;-64
2023/01/28 01:30:08;;;;;;;13.35;10.25;;;;;;;;;;5091074;28;20509;-65
2023/01/28 01:32:35;;;;;;;10.52;8.75;;;;;;;;;;5093141;28;20071;-64
2023/01/28 01:35:01;;;;;;;11.70;9.50;;;;;;;;;;5081897;28;20056;-64
2023/01/28 01:37:27;;;;;;;13.57;10.05;;;;;;;;;;5082611;28;20097;-64
2023/01/28 01:39:53;;;;;;;13.15;10.35;;;;;;;;;;5084558;28;20061;-64
2023/01/28 01:42:19;;;;;;;14.70;10.02;;;;;;;;;;5081837;28;20513;-65
2023/01/28 01:44:48;;;;;;;16.42;11.15;;;;;;;;;;5082098;28;20116;-64
2023/01/28 01:47:15;;;;;;;15.25;10.88;;;;;;;;;;5073678;28;20079;-64
2023/01/28 01:49:41;;;;;;;14.30;10.35;;;;;;;;;;5081089;28;20439;-64
2023/01/28 01:52:11;;;;;;;18.00;10.90;;;;;;;;;;5063544;28;20159;-64
2023/01/28 01:54:38;;;;;;;14.30;10.88;;;;;;;;;;5083807;28;20072;-64
2023/01/28 01:57:07;;;;;;;17.00;11.57;;;;;;;;;;5073535;28;20167;-64
2023/01/28 01:59:34;;;;;;;15.15;11.05;;;;;;;;;;5080575;28;20039;-64
2023/01/28 02:02:02;;;;;;;15.15;11.02;;;;;;;;;;5087883;28;20043;-64
2023/01/28 02:04:33;;;;;;;14.65;10.77;;;;;;;;;;5089293;28;20032;-64
2023/01/28 02:07:00;;;;;;;15.32;10.88;;;;;;;;;;5090287;28;20051;-64
2023/01/28 02:09:37;;;;;;;16.83;11.80;;;;;;;;;;5089725;28;20043;-64
2023/01/28 02:12:08;;;;;;;15.13;11.40;;;;;;;;;;5084522;28;20047;-64
2023/01/28 02:14:36;;;;;;;14.60;10.73;;;;;;;;;;5075094;28;20044;-65
2023/01/28 02:17:02;;;;;;;14.93;11.55;;;;;;;;;;5087158;28;20514;-64
2023/01/28 02:19:35;;;;;;;14.82;10.88;;;;;;;;;;5085650;28;20072;-65
2023/01/28 02:22:20;;;;;;;13.57;10.68;;;;;;;;;;5080592;28;20044;-64
2023/01/28 02:24:52;;;;;;;15.13;11.43;;;;;;;;;;5083715;28;20036;-64
2023/01/28 02:27:18;;;;;;;14.40;10.15;;;;;;;;;;5073093;28;20036;-65
2023/01/28 02:29:52;;;;;;;9.38;8.38;;;;;;;;;;5076715;28;20033;-65
2023/01/28 02:32:29;;;;;;;9.35;8.38;;;;;;;;;;5091204;28;20035;-64
2023/01/28 02:35:05;;;;;;;11.07;8.68;;;;;;;;;;5073597;28;20040;-64
2023/01/28 02:37:38;;;;;;;12.18;8.73;;;;;;;;;;5085870;28;20035;-65
2023/01/28 02:40:18;;;;;;;10.20;8.95;;;;;;;;;;5078313;28;20079;-65
2023/01/28 02:42:44;;;;;;;12.13;9.43;;;;;;;;;;5059984;28;20447;-64
2023/01/28 02:45:16;;;;;;;13.52;9.75;;;;;;;;;;5070242;28;20292;-64
2023/01/28 02:47:57;;;;;;;12.65;9.45;;;;;;;;;;5054813;28;20044;-65
2023/01/28 02:50:25;;;;;;;13.52;9.68;;;;;;;;;;5084974;28;20039;-65
2023/01/28 02:55:51;;;;;;;11.43;9.20;;;;;;;;;;5082558;28;20054;-64
2023/01/28 02:58:27;;;;;;;11.02;8.27;;;;;;;;;;5085193;28;20040;-64
2023/01/28 03:01:01;;;;;;;10.77;9.50;;;;;;;;;;5085037;28;20059;-65
2023/01/28 03:03:42;;;;;;;11.88;8.80;;;;;;;;;;5083426;28;20494;-65
2023/01/28 03:06:10;;;;;;;12.73;9.70;;;;;;;;;;5075075;28;20397;-66
2023/01/28 03:36:55;;;;;;;13.45;10.30;;;;;;;;;;5105159;22;20101;-63
2023/01/28 03:39:25;;;;;;;14.90;9.32;;;;;;;;;;5111945;28;20043;-63
2023/01/28 03:41:57;;;;;;;12.33;10.00;;;;;;;;;;5110307;28;20039;-64
2023/01/28 03:47:10;;;;;;;12.65;9.32;;;;;;;;;;5106956;28;20084;-64
2023/01/28 03:49:38;;;;;;;11.82;8.82;;;;;;;;;;5092004;28;20036;-64
2023/01/28 03:52:04;;;;;;;12.57;8.63;;;;;;;;;;5091599;28;20044;-64
2023/01/28 03:54:30;;;;;;;12.68;9.07;;;;;;;;;;5108655;28;20051;-64
2023/01/28 03:56:56;;;;;;;13.30;8.45;;;;;;;;;;5092466;28;20481;-63
2023/01/28 03:59:22;;;;;;;12.30;9.07;;;;;;;;;;5097029;28;20031;-64
2023/01/28 04:01:49;;;;;;;12.18;9.38;;;;;;;;;;5103194;28;20470;-63
2023/01/28 04:04:21;;;;;;;12.77;9.45;;;;;;;;;;5112240;28;20049;-63
2023/01/28 04:06:48;;;;;;;13.77;8.90;;;;;;;;;;5111360;28;20035;-64
2023/01/28 04:09:14;;;;;;;13.10;8.82;;;;;;;;;;5112404;28;20066;-63
2023/01/28 04:11:40;;;;;;;11.43;8.02;;;;;;;;;;5094979;28;20040;-63
2023/01/28 04:14:06;;;;;;;11.27;8.52;;;;;;;;;;5093072;28;20039;-64
2023/01/28 04:16:32;;;;;;;11.27;7.68;;;;;;;;;;5110237;28;20126;-64
2023/01/28 04:18:58;;;;;;;10.43;7.90;;;;;;;;;;5090106;28;20120;-63
2023/01/28 04:21:24;;;;;;;12.68;8.23;;;;;;;;;;5099188;28;20532;-63
2023/01/28 04:23:50;;;;;;;15.02;8.77;;;;;;;;;;5103106;28;20504;-63
2023/01/28 04:26:16;;;;;;;12.90;8.20;;;;;;;;;;5098504;28;20043;-63
2023/01/28 04:28:42;;;;;;;12.80;8.35;;;;;;;;;;5104953;28;20032;-63
2023/01/28 04:31:08;;;;;;;14.00;9.00;;;;;;;;;;5105568;28;20398;-63
2023/01/28 04:33:34;;;;;;;13.75;8.80;;;;;;;;;;5108822;28;20044;-63
2023/01/28 04:36:00;;;;;;;15.95;10.27;;;;;;;;;;5100124;28;20036;-64
2023/01/28 04:38:26;;;;;;;12.50;8.88;;;;;;;;;;5111024;28;20042;-64
2023/01/28 04:40:53;;;;;;;12.77;8.35;;;;;;;;;;5103535;28;20032;-64
2023/01/28 04:43:19;;;;;;;16.38;9.38;;;;;;;;;;5108631;28;20059;-64
2023/01/28 04:45:48;;;;;;;14.18;9.63;;;;;;;;;;5099824;28;20108;-63
2023/01/28 04:48:15;;;;;;;16.60;10.52;;;;;;;;;;5104370;28;20067;-62
2023/01/28 04:50:42;;;;;;;13.93;9.98;;;;;;;;;;5098154;28;20043;-63
2023/01/28 04:53:08;;;;;;;15.18;10.25;;;;;;;;;;5090554;28;20387;-63
2023/01/28 04:55:34;;;;;;;14.15;9.20;;;;;;;;;;5097780;28;20485;-63
2023/01/28 04:58:00;;;;;;;14.23;9.85;;;;;;;;;;5103879;28;20426;-63
2023/01/28 05:00:26;;;;;;;14.18;10.13;;;;;;;;;;5105640;28;20032;-63
2023/01/28 05:02:52;;;;;;;14.27;9.35;;;;;;;;;;5097793;28;20089;-63
2023/01/28 05:05:18;;;;;;;13.60;9.77;;;;;;;;;;5098769;28;20032;-63
2023/01/28 05:07:44;;;;;;;13.55;9.32;;;;;;;;;;5091243;28;20044;-63
2023/01/28 05:10:10;;;;;;;13.05;9.45;;;;;;;;;;5105402;28;20035;-62
2023/01/28 05:12:36;;;;;;;14.27;9.57;;;;;;;;;;5110199;28;20515;-63
2023/01/28 05:15:03;;;;;;;13.77;9.80;;;;;;;;;;5107783;28;20036;-63
2023/01/28 05:17:29;;;;;;;16.73;9.57;;;;;;;;;;5107333;28;20050;-63
2023/01/28 05:19:55;;;;;;;13.82;9.43;;;;;;;;;;5104117;28;20126;-63
2023/01/28 05:22:21;;;;;;;12.98;8.85;;;;;;;;;;5104715;28;20040;-63
2023/01/28 05:24:47;;;;;;;13.65;9.45;;;;;;;;;;5093186;28;20045;-63
2023/01/28 05:27:13;;;;;;;13.82;8.90;;;;;;;;;;5096078;28;20032;-63
2023/01/28 05:29:39;;;;;;;14.63;10.35;;;;;;;;;;5105581;28;20044;-63
2023/01/28 05:32:05;;;;;;;12.85;9.23;;;;;;;;;;5092485;28;20040;-64
2023/01/28 05:34:31;;;;;;;13.85;9.50;;;;;;;;;;5103937;28;20043;-63
2023/01/28 05:36:57;;;;;;;13.85;9.63;;;;;;;;;;5107532;28;20135;-63
2023/01/28 05:39:23;;;;;;;14.63;10.05;;;;;;;;;;5110448;28;20462;-63
2023/01/28 05:41:49;;;;;;;14.48;9.20;;;;;;;;;;5106712;28;20500;-63
2023/01/28 05:44:15;;;;;;;14.38;9.82;;;;;;;;;;5106789;28;20040;-63
2023/01/28 05:46:44;;;;;;;16.05;10.60;;;;;;;;;;5092810;28;20501;-63
2023/01/28 05:49:12;;;;;;;15.85;10.05;;;;;;;;;;5102708;28;20043;-63
2023/01/28 05:51:38;;;;;;;14.85;9.73;;;;;;;;;;5104638;28;20062;-64
2023/01/28 05:54:05;;;;;;;16.10;10.38;;;;;;;;;;5100231;28;20113;-62
2023/01/28 05:56:32;;;;;;;14.98;10.23;;;;;;;;;;5095937;28;20118;-63
2023/01/28 05:58:58;;;;;;;16.30;10.27;;;;;;;;;;5097166;28;20668;-62
2023/01/28 06:01:24;;;;;;;14.43;9.70;;;;;;;;;;5104663;28;20071;-63
2023/01/28 06:03:50;;;;;;;16.25;10.25;;;;;;;;;;5107944;27;20075;-63
2023/01/28 06:06:16;;;;;;;14.68;10.25;;;;;;;;;;5102404;28;20499;-63
2023/01/28 06:08:42;;;;;;;16.15;10.57;;;;;;;;;;5102712;28;20063;-63
2023/01/28 06:11:08;;;;;;;15.98;10.07;;;;;;;;;;5092835;28;20042;-63
2023/01/28 06:13:34;;;;;;;16.17;10.63;;;;;;;;;;5101267;28;20043;-63
2023/01/28 06:16:00;;;;;;;16.02;10.45;;;;;;;;;;5095654;28;20043;-63
2023/01/28 06:18:26;;;;;;;15.85;10.27;;;;;;;;;;5102694;28;20481;-64
2023/01/28 06:20:52;;;;;;;15.35;9.93;;;;;;;;;;5105586;28;20038;-64
2023/01/28 06:23:18;;;;;;;15.35;9.90;;;;;;;;;;5111523;28;20040;-64
2023/01/28 06:25:44;;;;;;;17.42;10.38;;;;;;;;;;5108797;28;20089;-64
2023/01/28 06:28:10;;;;;;;16.70;10.45;;;;;;;;;;5112152;28;20039;-62
2023/01/28 06:30:36;;;;;;;16.52;10.50;;;;;;;;;;5103932;28;20658;-63
2023/01/28 06:33:02;;;;;;;15.18;10.23;;;;;;;;;;5098819;28;20043;-63
2023/01/28 06:35:31;;;;;;;15.77;10.15;;;;;;;;;;5109626;28;20046;-63
2023/01/28 06:37:57;;;;;;;16.33;10.57;;;;;;;;;;5110351;28;20043;-63
2023/01/28 06:40:24;;;;;;;17.13;10.65;;;;;;;;;;5108080;28;20481;-64
2023/01/28 06:42:50;;;;;;;16.20;10.05;;;;;;;;;;5112302;28;20048;-63
2023/01/28 06:45:16;;;;;;;14.82;9.90;;;;;;;;;;5111143;28;20027;-63
2023/01/28 06:47:42;;;;;;;14.30;9.60;;;;;;;;;;5100951;28;20486;-63
2023/01/28 06:50:09;;;;;;;16.00;9.63;;;;;;;;;;5092164;28;20028;-63
2023/01/28 06:52:35;;;;;;;15.68;10.02;;;;;;;;;;5095769;28;20078;-63
2023/01/28 06:55:01;;;;;;;15.90;10.38;;;;;;;;;;5096869;28;20060;-63
2023/01/28 06:57:27;;;;;;;15.43;10.23;;;;;;;;;;5108602;28;20500;-63
2023/01/28 06:59:53;;;;;;;15.60;9.93;;;;;;;;;;5109240;28;20069;-63
2023/01/28 07:02:19;;;;;;;14.75;9.85;;;;;;;;;;5096333;28;20043;-63
2023/01/28 07:04:45;;;;;;;14.73;9.25;;;;;;;;;;5100311;28;20492;-63
2023/01/28 07:07:11;;;;;;;14.15;9.45;;;;;;;;;;5099223;28;20036;-63
2023/01/28 07:09:37;;;;;;;15.50;10.30;;;;;;;;;;5095922;28;20097;-64
2023/01/28 07:12:04;;;;;;;15.57;10.10;;;;;;;;;;5099982;28;20036;-64
2023/01/28 07:14:30;;;;;;;15.02;9.40;;;;;;;;;;5109747;28;20274;-63
2023/01/28 07:16:56;;;;;;;14.88;9.50;;;;;;;;;;5111552;28;20035;-63
2023/01/28 07:19:22;;;;;;;14.90;9.52;;;;;;;;;;5105737;28;20032;-63
2023/01/28 07:21:48;;;;;;;13.48;9.10;;;;;;;;;;5105769;28;20035;-63
2023/01/28 07:24:14;;;;;;;12.90;8.95;;;;;;;;;;5099693;28;20097;-64
2023/01/28 07:26:40;;;;;;;12.65;8.30;;;;;;;;;;5103772;28;20106;-63
2023/01/28 07:29:08;;;;;;;13.00;8.45;;;;;;;;;;5109655;28;20027;-63
2023/01/28 07:31:34;;;;;;;13.23;8.55;;;;;;;;;;5102562;28;20066;-63
2023/01/28 07:34:00;;;;;;;12.35;8.68;;;;;;;;;;5109762;28;22181;-63
2023/01/28 07:36:26;;;;;;;11.65;8.13;;;;;;;;;;5107553;28;20036;-63
2023/01/28 07:38:52;;;;;;;10.75;7.70;;;;;;;;;;5106435;28;20427;-63
2023/01/28 07:41:18;;;;;;;12.68;7.95;;;;;;;;;;5099477;28;20044;-62
2023/01/28 07:43:44;;;;;;;11.77;8.10;;;;;;;;;;5105978;28;20047;-63
2023/01/28 07:46:10;;;;;;;12.93;8.25;;;;;;;;;;5100187;28;20393;-63
2023/01/28 07:48:36;;;;;;;10.65;7.90;;;;;;;;;;5105770;28;20036;-63
2023/01/28 07:51:02;;;;;;;13.93;8.93;;;;;;;;;;5107617;28;20036;-63
2023/01/28 07:53:28;;;;;;;16.23;8.70;;;;;;;;;;5090189;28;20044;-63
2023/01/28 07:56:01;;;;;;;12.77;8.77;;;;;;;;;;5101783;28;20097;-63
2023/01/28 07:58:27;;;;;;;14.73;9.75;;;;;;;;;;5097435;28;20130;-63
2023/01/28 08:00:56;;;;;;;12.90;8.80;;;;;;;;;;5095928;28;20122;-63
2023/01/28 08:03:22;;;;;;;12.95;8.88;;;;;;;;;;5097551;28;20089;-63
2023/01/28 08:05:49;;;;;;;11.75;8.82;;;;;;;;;;5101932;28;20039;-63
2023/01/28 08:08:15;;;;;;;13.70;8.93;;;;;;;;;;5102346;28;20570;-63
2023/01/28 08:10:42;;;;;;;14.25;9.27;;;;;;;;;;5108478;28;20081;-63
2023/01/28 08:13:09;;;;;;;11.82;8.85;;;;;;;;;;5094119;28;20042;-63
2023/01/28 08:15:35;;;;;;;13.18;9.48;;;;;;;;;;5092917;28;20055;-63
2023/01/28 08:18:03;;;;;;;16.13;8.88;;;;;;;;;;5103854;28;20039;-63
2023/01/28 08:20:29;;;;;;;13.35;9.50;;;;;;;;;;5103699;28;20408;-64
2023/01/28 08:23:25;;;;;;;14.00;9.27;;;;;;;;;;5103099;28;20557;-63
2023/01/28 08:25:52;;;;;;;13.50;9.25;;;;;;;;;;5087692;28;20449;-63
2023/01/28 08:28:19;;;;;;;15.02;9.23;;;;;;;;;;5100127;28;20039;-64
2023/01/28 08:30:46;;;;;;;15.60;9.52;;;;;;;;;;5096332;28;20068;-63
2023/01/28 08:33:13;;;;;;;14.57;10.00;;;;;;;;;;5113405;28;20123;-64
2023/01/28 08:35:39;;;;;;;16.25;10.55;;;;;;;;;;5111620;28;20058;-63
2023/01/28 08:38:06;;;;;;;15.10;10.25;;;;;;;;;;5107677;28;20402;-62
2023/01/28 08:40:32;;;;;;;15.88;9.82;;;;;;;;;;5106936;28;20078;-63
2023/01/28 08:42:58;;;;;;;15.55;10.93;;;;;;;;;;5103829;28;20035;-63
2023/01/28 08:45:25;;;;;;;15.48;10.35;;;;;;;;;;5109982;27;20123;-63
2023/01/28 08:47:51;;;;;;;16.00;10.48;;;;;;;;;;5094502;28;20044;-62
2023/01/28 08:50:17;;;;;;;17.13;10.77;;;;;;;;;;5104375;28;20042;-63
2023/01/28 08:52:44;;;;;;;16.20;11.05;;;;;;;;;;5098682;28;20035;-62
2023/01/28 08:55:13;;;;;;;17.35;11.05;;;;;;;;;;5100543;28;20417;-62
2023/01/28 08:57:39;;;;;;;16.25;11.02;;;;;;;;;;5094405;28;20044;-62
2023/01/28 09:00:05;;;;;;;16.30;10.57;;;;;;;;;;5104745;28;20063;-63
2023/01/28 09:02:31;;;;;;;15.95;11.23;;;;;;;;;;5102649;28;20043;-62
2023/01/28 09:04:58;;;;;;;17.00;10.80;;;;;;;;;;5100542;28;20035;-62
2023/01/28 09:07:24;;;;;;;15.80;10.82;;;;;;;;;;5101474;28;20085;-62
2023/01/28 09:09:50;;;;;;;16.98;11.30;;;;;;;;;;5100589;28;20035;-62
2023/01/28 09:12:16;;;;;;;15.65;10.63;;;;;;;;;;5100155;27;20040;-62
2023/01/28 09:14:42;;;;;;;15.52;10.30;;;;;;;;;;5093285;28;20467;-62
2023/01/28 09:17:08;;;;;;;15.07;10.15;;;;;;;;;;5101711;22;20047;-60
2023/01/28 09:19:34;;;;;;;15.35;9.77;;;;;;;;;;5084348;28;20044;-61
2023/01/28 09:22:00;;;;;;;13.35;10.10;;;;;;;;;;5088526;28;20048;-61
2023/01/28 09:24:26;;;;;;;14.75;10.10;;;;;;;;;;5077488;28;20520;-60
2023/01/28 09:26:52;;;;;;;13.52;9.82;;;;;;;;;;5081053;28;20041;-61
2023/01/28 09:29:18;;;;;;;12.35;8.70;;;;;;;;;;5084458;28;20036;-61
2023/01/28 09:31:44;;;;;;;14.02;9.38;;;;;;;;;;5090516;28;20379;-61
2023/01/28 09:34:10;;;;;;;12.90;9.00;;;;;;;;;;5091634;28;20047;-62
2023/01/28 09:36:36;;;;;;;12.02;8.38;;;;;;;;;;5088999;28;20119;-61
2023/01/28 09:39:02;;;;;;;11.45;7.78;;;;;;;;;;5077167;28;20040;-61
2023/01/28 09:41:32;;;;;;;11.30;8.00;;;;;;;;;;5082828;28;20051;-61
2023/01/28 09:44:25;;;;;;;12.80;8.60;;;;;;;;;;5086947;28;20032;-61
2023/01/28 09:46:51;;;;;;;12.13;8.25;;;;;;;;;;5050833;28;20305;-61
2023/01/28 09:49:37;;;;;;;11.77;8.48;;;;;;;;;;5083031;28;20044;-62
2023/01/28 09:52:03;;;;;;;12.07;7.93;;;;;;;;;;5067768;28;20033;-62
2023/01/28 09:54:37;;;;;;;15.23;8.88;;;;;;;;;;5081967;28;20130;-62
2023/01/28 09:57:05;;;;;;;12.45;8.63;;;;;;;;;;5089667;28;20043;-61
2023/01/28 09:59:34;;;;;;;12.20;8.73;;;;;;;;;;5091410;28;20036;-61
2023/01/28 10:02:20;;;;;;;14.93;9.13;;;;;;;;;;5062178;28;20067;-62
2023/01/28 10:05:07;;;;;;;13.13;8.60;;;;;;;;;;5081360;28;20125;-61
2023/01/28 10:07:42;;;;;;;13.60;9.30;;;;;;;;;;5076433;28;20390;-61
2023/01/28 10:10:28;;;;;;;14.85;9.55;;;;;;;;;;5087613;28;20036;-62
2023/01/28 10:13:05;;;;;;;15.40;9.40;;;;;;;;;;5087714;28;20039;-61
2023/01/28 10:15:53;;;;;;;13.82;9.02;;;;;;;;;;5079227;28;20039;-61
2023/01/28 10:18:27;;;;;;;14.40;8.43;;;;;;;;;;5083453;28;20063;-62
2023/01/28 10:20:56;;;;;;;14.52;9.23;;;;;;;;;;5089537;28;20078;-61
2023/01/28 10:23:26;;;;;;;16.63;9.98;;;;;;;;;;5081527;28;20123;-61
2023/01/28 10:25:53;;;;;;;14.02;8.88;;;;;;;;;;5087854;28;20505;-61
2023/01/28 10:28:27;;;;;;;16.25;9.55;;;;;;;;;;5091451;28;20119;-61
2023/01/28 10:30:53;;;;;;;13.90;8.93;;;;;;;;;;5083060;28;20047;-61
2023/01/28 10:33:36;;;;;;;14.77;9.18;;;;;;;;;;5081938;28;20036;-61
2023/01/28 10:36:02;;;;;;;12.63;8.63;;;;;;;;;;5073941;28;20043;-61
2023/01/28 10:38:30;;;;;;;13.95;9.27;;;;;;;;;;5075066;28;20182;-62
2023/01/28 10:40:59;;;;;;;14.77;9.50;;;;;;;;;;5086813;28;20040;-62
2023/01/28 10:43:26;;;;;;;16.00;9.77;;;;;;;;;;5080132;28;20452;-61
2023/01/28 10:45:52;;;;;;;13.70;9.32;;;;;;;;;;5089083;28;20101;-62
2023/01/28 10:48:22;;;;;;;17.88;10.27;;;;;;;;;;5081043;28;20477;-62
2023/01/28 10:50:53;;;;;;;15.50;9.43;;;;;;;;;;5074305;28;20079;-62
2023/01/28 10:53:19;;;;;;;15.70;9.40;;;;;;;;;;5078184;28;20256;-62
2023/01/28 10:55:54;;;;;;;13.32;8.98;;;;;;;;;;5087225;28;20154;-62
2023/01/28 10:58:21;;;;;;;12.80;8.48;;;;;;;;;;5084966;28;20518;-62
2023/01/28 11:01:17;;;;;;;13.55;9.05;;;;;;;;;;5080355;28;20040;-61
2023/01/28 11:03:52;;;;;;;13.68;8.77;;;;;;;;;;5076418;28;20425;-62
2023/01/28 11:06:24;;;;;;;15.35;9.48;;;;;;;;;;5072393;28;20037;-61
2023/01/28 11:08:50;;;;;;;14.23;8.93;;;;;;;;;;5081072;28;20044;-62
2023/01/28 11:11:16;;;;;;;17.38;8.63;;;;;;;;;;5086004;28;20062;-62
2023/01/28 11:13:52;;;;;;;13.02;9.10;;;;;;;;;;5083483;28;20043;-61
2023/01/28 11:16:19;;;;;;;15.57;9.45;;;;;;;;;;5090756;28;20044;-61
2023/01/28 11:18:51;;;;;;;14.30;8.90;;;;;;;;;;5075551;28;20199;-62
2023/01/28 11:21:27;;;;;;;13.98;9.27;;;;;;;;;;5092091;28;20043;-61
2023/01/28 11:23:55;;;;;;;12.98;7.53;;;;;;;;;;5087008;28;20115;-61
2023/01/28 11:26:23;;;;;;;12.95;7.43;;;;;;;;;;5087140;28;20094;-62
2023/01/28 11:28:50;;;;;;;11.63;7.43;;;;;;;;;;5092536;28;20125;-61
2023/01/28 11:31:16;;;;;;;11.60;7.60;;;;;;;;;;5085333;28;20051;-62
2023/01/28 11:33:42;;;;;;;14.75;8.63;;;;;;;;;;5080368;28;20046;-62
2023/01/28 11:36:19;;;;;;;12.73;7.72;;;;;;;;;;5082917;28;20036;-62
2023/01/28 11:38:57;;;;;;;11.82;7.70;;;;;;;;;;5080213;28;20039;-62
2023/01/28 11:41:31;;;;;;;12.38;8.43;;;;;;;;;;5071422;28;20084;-62
2023/01/28 11:43:58;;;;;;;11.57;7.90;;;;;;;;;;5085921;28;20041;-61
2023/01/28 11:46:27;;;;;;;13.15;8.25;;;;;;;;;;5078499;28;20036;-62
2023/01/28 11:49:16;;;;;;;12.15;7.72;;;;;;;;;;5071597;28;20048;-62
2023/01/28 11:51:54;;;;;;;13.00;8.32;;;;;;;;;;5046748;28;20040;-62
2023/01/28 11:54:38;;;;;;;14.02;8.27;;;;;;;;;;5071216;28;20083;-62
2023/01/28 11:57:10;;;;;;;12.65;7.32;;;;;;;;;;5075232;28;20035;-62
2023/01/28 11:59:43;;;;;;;11.50;7.25;;;;;;;;;;5082295;28;20086;-61
2023/01/28 12:02:12;;;;;;;12.18;7.32;;;;;;;;;;5084174;28;20092;-61
2023/01/28 12:04:52;;;;;;;12.40;7.18;;;;;;;;;;5091177;28;20405;-62
2023/01/28 12:07:30;;;;;;;11.63;7.93;;;;;;;;;;5084058;28;20036;-62
2023/01/28 12:10:02;;;;;;;12.48;7.43;;;;;;;;;;5081789;28;20266;-62
2023/01/28 12:12:50;;;;;;;9.73;6.68;;;;;;;;;;5087277;28;20040;-62
2023/01/28 12:15:22;;;;;;;10.35;7.05;;;;;;;;;;5079678;28;20044;-62
2023/01/28 12:18:07;;;;;;;13.07;8.00;;;;;;;;;;5082199;28;20075;-62
2023/01/28 12:20:37;;;;;;;10.82;7.38;;;;;;;;;;5090056;28;20041;-61
2023/01/28 12:23:10;;;;;;;10.23;6.22;;;;;;;;;;5084601;28;20060;-62
2023/01/28 12:25:42;;;;;;;10.20;6.18;;;;;;;;;;5089510;28;20031;-61
2023/01/28 12:28:14;;;;;;;11.07;6.40;;;;;;;;;;5083694;28;20378;-62
2023/01/28 12:30:40;;;;;;;8.80;5.95;;;;;;;;;;5080854;28;20036;-62
2023/01/28 12:33:06;;;;;;;11.40;6.90;;;;;;;;;;5077537;28;20048;-62
2023/01/28 12:35:42;;;;;;;11.43;6.90;;;;;;;;;;5071323;28;20048;-61
2023/01/28 12:38:14;;;;;;;11.32;6.63;;;;;;;;;;5080568;28;20134;-62
2023/01/28 12:40:50;;;;;;;11.45;6.72;;;;;;;;;;5082312;28;20131;-61
2023/01/28 12:43:18;;;;;;;9.52;6.28;;;;;;;;;;5071160;28;20093;-62
2023/01/28 12:45:47;;;;;;;11.32;7.47;;;;;;;;;;5078991;28;20486;-62
2023/01/28 12:48:19;;;;;;;9.18;6.38;;;;;;;;;;5080235;28;20066;-62
2023/01/28 12:50:51;;;;;;;9.77;6.35;;;;;;;;;;5089101;28;20040;-62
2023/01/28 12:53:32;;;;;;;12.02;6.63;;;;;;;;;;5087845;28;20120;-61
2023/01/28 12:56:02;;;;;;;10.55;5.97;;;;;;;;;;5077284;28;20042;-62
2023/01/28 12:58:36;;;;;;;11.73;7.38;;;;;;;;;;5071508;28;20050;-61
2023/01/28 13:01:04;;;;;;;10.93;6.88;;;;;;;;;;5087914;28;20036;-62
2023/01/28 13:03:38;;;;;;;11.63;6.85;;;;;;;;;;5080015;28;20494;-62
2023/01/28 13:06:22;;;;;;;10.65;7.05;;;;;;;;;;5088233;28;20025;-62
2023/01/28 13:08:48;;;;;;;11.43;7.05;;;;;;;;;;5072810;28;20123;-62
2023/01/28 13:11:16;;;;;;;12.18;7.10;;;;;;;;;;5069150;28;20143;-62
2023/01/28 13:13:44;;;;;;;12.00;6.88;;;;;;;;;;5087959;28;20497;-62
2023/01/28 13:16:10;;;;;;;10.35;7.15;;;;;;;;;;5089700;28;20127;-62
2023/01/28 13:18:39;;;;;;;11.23;6.80;;;;;;;;;;5081899;28;20115;-62
2023/01/28 13:21:06;;;;;;;11.90;7.63;;;;;;;;;;5087723;28;20083;-62
2023/01/28 13:23:38;;;;;;;8.68;6.10;;;;;;;;;;5089439;28;20028;-62
2023/01/28 13:26:10;;;;;;;12.55;6.47;;;;;;;;;;5086101;28;20036;-62
2023/01/28 13:28:36;;;;;;;8.75;5.35;;;;;;;;;;5092926;28;20097;-62
2023/01/28 13:31:07;;;;;;;11.57;7.03;;;;;;;;;;5093417;28;20048;-62
2023/01/28 13:33:38;;;;;;;10.07;6.63;;;;;;;;;;5093021;28;20540;-62
2023/01/28 13:36:16;;;;;;;11.63;7.50;;;;;;;;;;5083676;28;20044;-62
2023/01/28 13:38:43;;;;;;;13.60;7.55;;;;;;;;;;5087047;28;20043;-62
2023/01/28 13:41:09;;;;;;;9.75;6.70;;;;;;;;;;5089468;28;20095;-62
2023/01/28 13:43:36;;;;;;;10.90;7.13;;;;;;;;;;5090043;28;20032;-62
2023/01/28 13:46:13;;;;;;;13.55;7.03;;;;;;;;;;5091813;28;20044;-62
2023/01/28 13:48:39;;;;;;;11.40;7.18;;;;;;;;;;5094079;28;20064;-62
2023/01/28 13:51:11;;;;;;;13.15;7.55;;;;;;;;;;5088249;28;20044;-62
2023/01/28 13:53:47;;;;;;;14.75;7.55;;;;;;;;;;5090298;28;20043;-62
2023/01/28 13:56:25;;;;;;;11.90;7.80;;;;;;;;;;5093310;28;20051;-62
2023/01/28 13:59:18;;;;;;;11.70;7.40;;;;;;;;;;5084393;28;20048;-63
2023/01/28 14:01:57;;;;;;;11.98;7.45;;;;;;;;;;5090201;28;20032;-63
2023/01/28 14:04:23;;;;;;;14.23;7.38;;;;;;;;;;5087571;28;20055;-61
2023/01/28 14:07:00;;;;;;;11.57;7.15;;;;;;;;;;5078012;28;20494;-62
2023/01/28 14:09:28;;;;;;;14.88;7.85;;;;;;;;;;5088339;28;20043;-62
2023/01/28 14:12:12;;;;;;;12.63;8.02;;;;;;;;;;5090930;28;20119;-61
2023/01/28 14:14:57;;;;;;;12.52;7.43;;;;;;;;;;5088689;28;20508;-62
2023/01/28 14:17:43;;;;;;;11.52;7.45;;;;;;;;;;5079252;28;20076;-61
2023/01/28 14:20:22;;;;;;;13.20;7.63;;;;;;;;;;5085119;28;20051;-62
2023/01/28 14:22:49;;;;;;;11.82;7.57;;;;;;;;;;5084687;28;20422;-62
2023/01/28 14:25:20;;;;;;;12.45;7.30;;;;;;;;;;5081569;28;20040;-62
2023/01/28 14:27:49;;;;;;;12.40;7.60;;;;;;;;;;5088669;28;20032;-62
2023/01/28 14:30:15;;;;;;;13.57;7.35;;;;;;;;;;5082690;28;20126;-62
2023/01/28 14:32:46;;;;;;;15.10;8.07;;;;;;;;;;5081062;28;20225;-62
2023/01/28 14:35:17;;;;;;;13.38;7.72;;;;;;;;;;5072937;28;20040;-62
2023/01/28 14:37:44;;;;;;;13.77;7.93;;;;;;;;;;5082228;28;20125;-61
2023/01/28 14:40:15;;;;;;;13.95;7.95;;;;;;;;;;5080428;28;20040;-62
2023/01/28 14:42:44;;;;;;;13.95;8.50;;;;;;;;;;5087160;28;20482;-62
2023/01/28 14:45:19;;;;;;;14.77;8.02;;;;;;;;;;5081266;28;20505;-62
2023/01/28 14:48:03;;;;;;;13.60;8.25;;;;;;;;;;5081276;28;20517;-62
2023/01/28 14:50:32;;;;;;;15.45;8.57;;;;;;;;;;5071819;28;20546;-62
2023/01/28 14:53:21;;;;;;;13.35;8.48;;;;;;;;;;5083944;28;20559;-62
2023/01/28 14:56:07;;;;;;;14.50;8.32;;;;;;;;;;5088623;28;20055;-62
2023/01/28 14:58:36;;;;;;;14.18;8.10;;;;;;;;;;5083731;28;20044;-62
2023/01/28 15:01:02;;;;;;;16.65;8.10;;;;;;;;;;5077546;28;20048;-61
2023/01/28 15:03:29;;;;;;;15.25;8.63;;;;;;;;;;5086432;28;20039;-62
2023/01/28 15:06:06;;;;;;;15.45;8.75;;;;;;;;;;5082927;28;20196;-63
2023/01/28 15:08:32;;;;;;;16.23;8.65;;;;;;;;;;5083871;28;20135;-62
2023/01/28 15:11:00;;;;;;;16.75;9.23;;;;;;;;;;5089226;28;20048;-62
2023/01/28 15:13:27;;;;;;;38.97;28.23;;;;;;;;;;5086731;28;20040;-62